sensor_id;sensor_type;location;lat;lon;timestamp;temperature;humidity
15115;DHT22;7658;51.456;7.622;2023-08-17T00:00:26;18.80;99.90
15115;DHT22;7658;51.456;7.622;2023-08-17T00:02:52;18.80;99.90
15115;DHT22;7658;51.456;7.622;2023-08-17T00:05:18;18.80;99.90
15115;DHT22;7658;51.456;7.622;2023-08-17T00:07:43;18.70;99.90
15115;DHT22;7658;51.456;7.622;2023-08-17T00:10:09;18.60;99.90
15115;DHT22;7658;51.456;7.622;2023-08-17T00:12:35;18.50;99.90
15115;DHT22;7658;51.456;7.622;2023-08-17T00:15:01;18.50;99.90
15115;DHT22;7658;51.456;7.622;2023-08-17T00:17:26;18.40;99.90
15115;DHT22;7658;51.456;7.622;2023-08-17T00:19:52;18.40;99.90
15115;DHT22;7658;51.456;7.622;2023-08-17T00:22:30;18.30;99.90
15115;DHT22;7658;51.456;7.622;2023-08-17T00:24:56;18.20;99.90
15115;DHT22;7658;51.456;7.622;2023-08-17T00:27:22;18.10;99.90
15115;DHT22;7658;51.456;7.622;2023-08-17T00:29:48;17.90;99.90
15115;DHT22;7658;51.456;7.622;2023-08-17T00:32:13;17.80;99.90
15115;DHT22;7658;51.456;7.622;2023-08-17T00:34:39;17.70;99.90
15115;DHT22;7658;51.456;7.622;2023-08-17T00:37:05;17.60;99.90
15115;DHT22;7658;51.456;7.622;2023-08-17T00:39:30;17.60;99.90
15115;DHT22;7658;51.456;7.622;2023-08-17T00:41:56;17.50;99.90
15115;DHT22;7658;51.456;7.622;2023-08-17T00:44:22;17.40;99.90
15115;DHT22;7658;51.456;7.622;2023-08-17T00:46:48;17.30;99.90
15115;DHT22;7658;51.456;7.622;2023-08-17T00:49:13;17.30;99.90
15115;DHT22;7658;51.456;7.622;2023-08-17T00:51:45;17.30;99.90
15115;DHT22;7658;51.456;7.622;2023-08-17T00:54:12;17.30;99.90
15115;DHT22;7658;51.456;7.622;2023-08-17T00:56:38;17.30;99.90
15115;DHT22;7658;51.456;7.622;2023-08-17T00:59:04;17.30;99.90
15115;DHT22;7658;51.456;7.622;2023-08-17T01:01:30;17.30;99.90
15115;DHT22;7658;51.456;7.622;2023-08-17T01:03:55;17.30;99.90
15115;DHT22;7658;51.456;7.622;2023-08-17T01:06:21;17.30;99.90
15115;DHT22;7658;51.456;7.622;2023-08-17T01:08:47;17.30;99.90
15115;DHT22;7658;51.456;7.622;2023-08-17T01:11:32;17.20;99.90
15115;DHT22;7658;51.456;7.622;2023-08-17T01:14:02;17.20;99.90
15115;DHT22;7658;51.456;7.622;2023-08-17T01:19:48;17.20;99.90
15115;DHT22;7658;51.456;7.622;2023-08-17T01:22:17;17.20;99.90
15115;DHT22;7658;51.456;7.622;2023-08-17T01:24:46;17.20;99.90
15115;DHT22;7658;51.456;7.622;2023-08-17T01:27:12;17.30;99.90
15115;DHT22;7658;51.456;7.622;2023-08-17T01:29:38;17.20;99.90
15115;DHT22;7658;51.456;7.622;2023-08-17T01:32:09;17.30;99.90
15115;DHT22;7658;51.456;7.622;2023-08-17T01:34:47;17.20;99.90
15115;DHT22;7658;51.456;7.622;2023-08-17T01:37:18;17.20;99.90
15115;DHT22;7658;51.456;7.622;2023-08-17T01:39:45;17.20;99.90
15115;DHT22;7658;51.456;7.622;2023-08-17T01:42:16;17.20;99.90
15115;DHT22;7658;51.456;7.622;2023-08-17T01:44:42;17.20;99.90
15115;DHT22;7658;51.456;7.622;2023-08-17T01:47:07;17.10;99.90
15115;DHT22;7658;51.456;7.622;2023-08-17T01:49:33;17.10;99.90
15115;DHT22;7658;51.456;7.622;2023-08-17T01:51:59;17.00;99.90
15115;DHT22;7658;51.456;7.622;2023-08-17T01:54:26;17.10;99.90
15115;DHT22;7658;51.456;7.622;2023-08-17T01:56:52;17.00;99.90
15115;DHT22;7658;51.456;7.622;2023-08-17T01:59:17;17.00;99.90
15115;DHT22;7658;51.456;7.622;2023-08-17T02:01:45;17.00;99.90
15115;DHT22;7658;51.456;7.622;2023-08-17T02:04:11;16.90;99.90
15115;DHT22;7658;51.456;7.622;2023-08-17T02:06:36;16.90;99.90
15115;DHT22;7658;51.456;7.622;2023-08-17T02:09:02;16.90;99.90
15115;DHT22;7658;51.456;7.622;2023-08-17T02:11:28;16.90;99.90
15115;DHT22;7658;51.456;7.622;2023-08-17T02:13:54;16.90;99.90
15115;DHT22;7658;51.456;7.622;2023-08-17T02:16:19;16.80;99.90
15115;DHT22;7658;51.456;7.622;2023-08-17T02:18:45;16.80;99.90
15115;DHT22;7658;51.456;7.622;2023-08-17T02:21:11;16.80;99.90
15115;DHT22;7658;51.456;7.622;2023-08-17T02:23:37;16.80;99.90
15115;DHT22;7658;51.456;7.622;2023-08-17T02:26:02;16.80;99.90
15115;DHT22;7658;51.456;7.622;2023-08-17T02:28:30;16.80;99.90
15115;DHT22;7658;51.456;7.622;2023-08-17T02:30:57;16.80;99.90
15115;DHT22;7658;51.456;7.622;2023-08-17T02:33:23;16.80;99.90
15115;DHT22;7658;51.456;7.622;2023-08-17T02:35:50;16.80;99.90
15115;DHT22;7658;51.456;7.622;2023-08-17T02:38:16;16.80;99.90
15115;DHT22;7658;51.456;7.622;2023-08-17T02:40:42;16.70;99.90
15115;DHT22;7658;51.456;7.622;2023-08-17T02:43:08;16.70;99.90
15115;DHT22;7658;51.456;7.622;2023-08-17T02:45:34;16.70;99.90
15115;DHT22;7658;51.456;7.622;2023-08-17T02:48:00;16.70;99.90
15115;DHT22;7658;51.456;7.622;2023-08-17T02:50:26;16.70;99.90
15115;DHT22;7658;51.456;7.622;2023-08-17T02:52:51;16.80;99.90
15115;DHT22;7658;51.456;7.622;2023-08-17T02:55:17;16.70;99.90
15115;DHT22;7658;51.456;7.622;2023-08-17T02:57:43;16.70;99.90
15115;DHT22;7658;51.456;7.622;2023-08-17T03:00:09;16.70;99.90
15115;DHT22;7658;51.456;7.622;2023-08-17T03:02:35;16.70;99.90
15115;DHT22;7658;51.456;7.622;2023-08-17T03:05:01;16.70;99.90
15115;DHT22;7658;51.456;7.622;2023-08-17T03:07:37;16.70;99.90
15115;DHT22;7658;51.456;7.622;2023-08-17T03:10:03;16.70;99.90
15115;DHT22;7658;51.456;7.622;2023-08-17T03:12:29;16.70;99.90
15115;DHT22;7658;51.456;7.622;2023-08-17T03:14:57;16.70;99.90
15115;DHT22;7658;51.456;7.622;2023-08-17T03:17:23;16.70;99.90
15115;DHT22;7658;51.456;7.622;2023-08-17T03:19:49;16.70;99.90
15115;DHT22;7658;51.456;7.622;2023-08-17T03:22:19;16.70;99.90
15115;DHT22;7658;51.456;7.622;2023-08-17T03:24:59;16.70;99.90
15115;DHT22;7658;51.456;7.622;2023-08-17T03:27:25;16.70;99.90
15115;DHT22;7658;51.456;7.622;2023-08-17T03:29:51;16.70;99.90
15115;DHT22;7658;51.456;7.622;2023-08-17T03:32:17;16.70;99.90
15115;DHT22;7658;51.456;7.622;2023-08-17T03:34:43;16.60;99.90
15115;DHT22;7658;51.456;7.622;2023-08-17T03:37:14;16.60;99.90
15115;DHT22;7658;51.456;7.622;2023-08-17T03:39:40;16.60;99.90
15115;DHT22;7658;51.456;7.622;2023-08-17T03:42:06;16.60;99.90
15115;DHT22;7658;51.456;7.622;2023-08-17T03:44:34;16.50;99.90
15115;DHT22;7658;51.456;7.622;2023-08-17T03:47:09;16.50;99.90
15115;DHT22;7658;51.456;7.622;2023-08-17T03:49:38;16.50;99.90
15115;DHT22;7658;51.456;7.622;2023-08-17T03:52:06;16.60;99.90
15115;DHT22;7658;51.456;7.622;2023-08-17T03:54:32;16.60;99.90
15115;DHT22;7658;51.456;7.622;2023-08-17T03:56:58;16.60;99.90
15115;DHT22;7658;51.456;7.622;2023-08-17T03:59:29;16.60;99.90
15115;DHT22;7658;51.456;7.622;2023-08-17T04:01:57;16.60;99.90
15115;DHT22;7658;51.456;7.622;2023-08-17T04:04:23;16.60;99.90
15115;DHT22;7658;51.456;7.622;2023-08-17T04:06:51;16.60;99.90
15115;DHT22;7658;51.456;7.622;2023-08-17T04:09:22;16.60;99.90
15115;DHT22;7658;51.456;7.622;2023-08-17T04:11:48;16.60;99.90
15115;DHT22;7658;51.456;7.622;2023-08-17T04:14:13;16.60;99.90
15115;DHT22;7658;51.456;7.622;2023-08-17T04:16:40;16.60;99.90
15115;DHT22;7658;51.456;7.622;2023-08-17T04:19:09;16.60;99.90
15115;DHT22;7658;51.456;7.622;2023-08-17T04:21:34;16.60;99.90
15115;DHT22;7658;51.456;7.622;2023-08-17T04:24:00;16.60;99.90
15115;DHT22;7658;51.456;7.622;2023-08-17T04:26:26;16.50;99.90
15115;DHT22;7658;51.456;7.622;2023-08-17T04:29:20;16.50;99.90
15115;DHT22;7658;51.456;7.622;2023-08-17T04:31:46;16.50;99.90
15115;DHT22;7658;51.456;7.622;2023-08-17T04:34:14;16.50;99.90
15115;DHT22;7658;51.456;7.622;2023-08-17T04:36:40;16.50;99.90
15115;DHT22;7658;51.456;7.622;2023-08-17T04:39:11;16.50;99.90
15115;DHT22;7658;51.456;7.622;2023-08-17T04:41:40;16.50;99.90
15115;DHT22;7658;51.456;7.622;2023-08-17T04:44:08;16.50;99.90
15115;DHT22;7658;51.456;7.622;2023-08-17T04:46:34;16.50;99.90
15115;DHT22;7658;51.456;7.622;2023-08-17T04:49:03;16.50;99.90
15115;DHT22;7658;51.456;7.622;2023-08-17T04:51:31;16.50;99.90
15115;DHT22;7658;51.456;7.622;2023-08-17T04:54:02;16.50;99.90
15115;DHT22;7658;51.456;7.622;2023-08-17T04:56:28;16.60;99.90
15115;DHT22;7658;51.456;7.622;2023-08-17T04:58:56;16.60;99.90
15115;DHT22;7658;51.456;7.622;2023-08-17T05:01:22;16.60;99.90
15115;DHT22;7658;51.456;7.622;2023-08-17T05:03:48;16.70;99.90
15115;DHT22;7658;51.456;7.622;2023-08-17T05:06:14;16.70;99.90
15115;DHT22;7658;51.456;7.622;2023-08-17T05:08:40;16.60;99.90
15115;DHT22;7658;51.456;7.622;2023-08-17T05:11:05;16.60;99.90
15115;DHT22;7658;51.456;7.622;2023-08-17T05:13:31;16.70;99.90
15115;DHT22;7658;51.456;7.622;2023-08-17T05:15:57;16.70;99.90
15115;DHT22;7658;51.456;7.622;2023-08-17T05:18:22;16.70;99.90
15115;DHT22;7658;51.456;7.622;2023-08-17T05:20:48;16.70;99.90
15115;DHT22;7658;51.456;7.622;2023-08-17T05:23:14;16.70;99.90
15115;DHT22;7658;51.456;7.622;2023-08-17T05:25:40;16.70;99.90
15115;DHT22;7658;51.456;7.622;2023-08-17T05:28:05;16.70;99.90
15115;DHT22;7658;51.456;7.622;2023-08-17T05:30:32;16.70;99.90
15115;DHT22;7658;51.456;7.622;2023-08-17T05:32:58;16.70;99.90
15115;DHT22;7658;51.456;7.622;2023-08-17T05:35:25;16.70;99.90
15115;DHT22;7658;51.456;7.622;2023-08-17T05:37:51;16.70;99.90
15115;DHT22;7658;51.456;7.622;2023-08-17T05:40:16;16.70;99.90
15115;DHT22;7658;51.456;7.622;2023-08-17T05:42:43;16.60;99.90
15115;DHT22;7658;51.456;7.622;2023-08-17T05:45:09;16.70;99.90
15115;DHT22;7658;51.456;7.622;2023-08-17T05:47:34;16.70;99.90
15115;DHT22;7658;51.456;7.622;2023-08-17T05:50:00;16.60;99.90
15115;DHT22;7658;51.456;7.622;2023-08-17T05:52:26;16.70;99.90
15115;DHT22;7658;51.456;7.622;2023-08-17T05:54:52;16.70;99.90
15115;DHT22;7658;51.456;7.622;2023-08-17T05:57:17;16.80;99.90
15115;DHT22;7658;51.456;7.622;2023-08-17T05:59:43;16.80;99.90
15115;DHT22;7658;51.456;7.622;2023-08-17T06:02:09;16.70;99.90
15115;DHT22;7658;51.456;7.622;2023-08-17T06:04:35;16.70;99.90
15115;DHT22;7658;51.456;7.622;2023-08-17T06:07:01;16.70;99.90
15115;DHT22;7658;51.456;7.622;2023-08-17T06:09:26;16.70;99.90
15115;DHT22;7658;51.456;7.622;2023-08-17T06:11:52;16.80;99.90
15115;DHT22;7658;51.456;7.622;2023-08-17T06:14:18;16.80;99.90
15115;DHT22;7658;51.456;7.622;2023-08-17T06:16:44;16.80;99.90
15115;DHT22;7658;51.456;7.622;2023-08-17T06:19:09;16.90;99.90
15115;DHT22;7658;51.456;7.622;2023-08-17T06:21:35;16.90;99.90
15115;DHT22;7658;51.456;7.622;2023-08-17T06:24:01;16.90;99.90
15115;DHT22;7658;51.456;7.622;2023-08-17T06:26:26;16.90;99.90
15115;DHT22;7658;51.456;7.622;2023-08-17T06:28:52;16.90;99.90
15115;DHT22;7658;51.456;7.622;2023-08-17T06:31:18;16.90;99.90
15115;DHT22;7658;51.456;7.622;2023-08-17T06:33:43;16.90;99.90
15115;DHT22;7658;51.456;7.622;2023-08-17T06:36:09;16.90;99.90
15115;DHT22;7658;51.456;7.622;2023-08-17T06:38:38;16.90;99.90
15115;DHT22;7658;51.456;7.622;2023-08-17T06:41:04;16.80;99.90
15115;DHT22;7658;51.456;7.622;2023-08-17T06:43:30;16.80;99.90
15115;DHT22;7658;51.456;7.622;2023-08-17T06:45:56;16.70;99.90
15115;DHT22;7658;51.456;7.622;2023-08-17T06:48:22;16.70;99.90
15115;DHT22;7658;51.456;7.622;2023-08-17T06:50:47;16.70;99.90
15115;DHT22;7658;51.456;7.622;2023-08-17T06:53:13;16.80;99.90
15115;DHT22;7658;51.456;7.622;2023-08-17T06:55:39;16.80;99.90
15115;DHT22;7658;51.456;7.622;2023-08-17T06:58:05;16.80;99.90
15115;DHT22;7658;51.456;7.622;2023-08-17T07:00:31;16.80;99.90
15115;DHT22;7658;51.456;7.622;2023-08-17T07:02:57;16.80;99.90
15115;DHT22;7658;51.456;7.622;2023-08-17T07:05:25;16.80;99.90
15115;DHT22;7658;51.456;7.622;2023-08-17T07:07:51;16.90;99.90
15115;DHT22;7658;51.456;7.622;2023-08-17T07:10:18;16.90;99.90
15115;DHT22;7658;51.456;7.622;2023-08-17T07:12:45;16.80;99.90
15115;DHT22;7658;51.456;7.622;2023-08-17T07:15:11;16.80;99.90
15115;DHT22;7658;51.456;7.622;2023-08-17T07:17:37;16.80;99.90
15115;DHT22;7658;51.456;7.622;2023-08-17T07:20:04;16.80;99.90
15115;DHT22;7658;51.456;7.622;2023-08-17T07:22:31;16.80;99.90
15115;DHT22;7658;51.456;7.622;2023-08-17T07:24:57;16.90;99.90
15115;DHT22;7658;51.456;7.622;2023-08-17T07:27:23;16.90;99.90
15115;DHT22;7658;51.456;7.622;2023-08-17T07:29:48;16.90;99.90
15115;DHT22;7658;51.456;7.622;2023-08-17T07:32:14;16.90;99.90
15115;DHT22;7658;51.456;7.622;2023-08-17T07:34:40;16.90;99.90
15115;DHT22;7658;51.456;7.622;2023-08-17T07:37:06;16.90;99.90
15115;DHT22;7658;51.456;7.622;2023-08-17T07:39:33;17.00;99.90
15115;DHT22;7658;51.456;7.622;2023-08-17T07:41:59;16.90;99.90
15115;DHT22;7658;51.456;7.622;2023-08-17T07:44:24;17.00;99.90
15115;DHT22;7658;51.456;7.622;2023-08-17T07:46:50;17.10;99.90
15115;DHT22;7658;51.456;7.622;2023-08-17T07:49:16;17.20;99.90
15115;DHT22;7658;51.456;7.622;2023-08-17T07:51:49;17.20;99.90
15115;DHT22;7658;51.456;7.622;2023-08-17T07:54:15;17.20;99.90
15115;DHT22;7658;51.456;7.622;2023-08-17T07:56:40;17.20;99.90
15115;DHT22;7658;51.456;7.622;2023-08-17T07:59:06;17.20;99.90
15115;DHT22;7658;51.456;7.622;2023-08-17T08:01:32;17.30;99.90
15115;DHT22;7658;51.456;7.622;2023-08-17T08:04:27;17.30;99.90
15115;DHT22;7658;51.456;7.622;2023-08-17T08:24:19;17.60;99.90
15115;DHT22;7658;51.456;7.622;2023-08-17T08:41:03;17.80;99.90
15115;DHT22;7658;51.456;7.622;2023-08-17T08:43:30;17.70;99.90
15115;DHT22;7658;51.456;7.622;2023-08-17T08:45:58;17.70;99.90
15115;DHT22;7658;51.456;7.622;2023-08-17T08:48:26;17.70;99.90
15115;DHT22;7658;51.456;7.622;2023-08-17T08:50:55;17.70;99.90
15115;DHT22;7658;51.456;7.622;2023-08-17T08:53:27;17.70;99.90
15115;DHT22;7658;51.456;7.622;2023-08-17T08:59:11;17.80;99.90
15115;DHT22;7658;51.456;7.622;2023-08-17T09:01:38;17.70;99.90
15115;DHT22;7658;51.456;7.622;2023-08-17T09:04:07;17.70;99.90
15115;DHT22;7658;51.456;7.622;2023-08-17T09:06:33;17.80;99.90
15115;DHT22;7658;51.456;7.622;2023-08-17T09:09:02;17.80;99.90
15115;DHT22;7658;51.456;7.622;2023-08-17T09:11:46;17.80;99.90
15115;DHT22;7658;51.456;7.622;2023-08-17T09:14:12;17.90;99.90
15115;DHT22;7658;51.456;7.622;2023-08-17T09:16:52;17.90;99.90
15115;DHT22;7658;51.456;7.622;2023-08-17T09:19:19;18.00;99.90
15115;DHT22;7658;51.456;7.622;2023-08-17T09:21:45;18.10;99.90
15115;DHT22;7658;51.456;7.622;2023-08-17T09:24:15;18.30;99.90
15115;DHT22;7658;51.456;7.622;2023-08-17T09:26:41;18.40;99.90
15115;DHT22;7658;51.456;7.622;2023-08-17T09:29:17;18.50;99.90
15115;DHT22;7658;51.456;7.622;2023-08-17T09:31:43;18.50;99.90
15115;DHT22;7658;51.456;7.622;2023-08-17T09:34:09;18.50;99.90
15115;DHT22;7658;51.456;7.622;2023-08-17T09:36:46;18.60;99.90
15115;DHT22;7658;51.456;7.622;2023-08-17T09:55:44;18.50;99.90
15115;DHT22;7658;51.456;7.622;2023-08-17T09:58:11;18.60;99.90
15115;DHT22;7658;51.456;7.622;2023-08-17T10:00:45;18.50;99.90
15115;DHT22;7658;51.456;7.622;2023-08-17T10:03:13;18.50;99.90
15115;DHT22;7658;51.456;7.622;2023-08-17T10:05:41;18.50;99.90
15115;DHT22;7658;51.456;7.622;2023-08-17T10:08:07;18.60;99.90
15115;DHT22;7658;51.456;7.622;2023-08-17T10:10:40;18.50;99.90
15115;DHT22;7658;51.456;7.622;2023-08-17T10:13:11;18.50;99.90
15115;DHT22;7658;51.456;7.622;2023-08-17T10:15:48;18.50;99.90
15115;DHT22;7658;51.456;7.622;2023-08-17T10:18:40;18.60;99.90
15115;DHT22;7658;51.456;7.622;2023-08-17T10:21:35;18.70;99.90
15115;DHT22;7658;51.456;7.622;2023-08-17T10:23:58;18.70;99.90
15115;DHT22;7658;51.456;7.622;2023-08-17T10:26:24;18.90;99.90
15115;DHT22;7658;51.456;7.622;2023-08-17T10:28:51;18.90;99.90
15115;DHT22;7658;51.456;7.622;2023-08-17T10:31:18;19.00;99.90
15115;DHT22;7658;51.456;7.622;2023-08-17T10:33:44;19.10;99.90
15115;DHT22;7658;51.456;7.622;2023-08-17T10:36:13;19.20;99.90
15115;DHT22;7658;51.456;7.622;2023-08-17T10:38:40;19.20;99.90
15115;DHT22;7658;51.456;7.622;2023-08-17T10:41:14;19.20;99.90
15115;DHT22;7658;51.456;7.622;2023-08-17T10:43:56;19.10;99.90
15115;DHT22;7658;51.456;7.622;2023-08-17T10:46:32;19.00;99.90
15115;DHT22;7658;51.456;7.622;2023-08-17T10:49:04;19.10;99.90
15115;DHT22;7658;51.456;7.622;2023-08-17T10:51:31;19.10;99.90
15115;DHT22;7658;51.456;7.622;2023-08-17T10:54:04;19.00;99.90
15115;DHT22;7658;51.456;7.622;2023-08-17T10:56:30;19.00;99.90
15115;DHT22;7658;51.456;7.622;2023-08-17T10:59:02;19.10;99.90
15115;DHT22;7658;51.456;7.622;2023-08-17T11:01:40;19.20;99.90
15115;DHT22;7658;51.456;7.622;2023-08-17T11:04:16;19.20;99.90
15115;DHT22;7658;51.456;7.622;2023-08-17T11:06:46;19.30;99.90
15115;DHT22;7658;51.456;7.622;2023-08-17T11:09:11;19.30;99.90
15115;DHT22;7658;51.456;7.622;2023-08-17T11:11:38;19.20;99.90
15115;DHT22;7658;51.456;7.622;2023-08-17T11:14:03;19.10;99.90
15115;DHT22;7658;51.456;7.622;2023-08-17T11:16:29;18.90;99.90
15115;DHT22;7658;51.456;7.622;2023-08-17T11:18:55;18.80;99.90
15115;DHT22;7658;51.456;7.622;2023-08-17T11:21:24;18.80;99.90
15115;DHT22;7658;51.456;7.622;2023-08-17T11:23:50;18.90;99.90
15115;DHT22;7658;51.456;7.622;2023-08-17T11:26:17;18.90;99.90
15115;DHT22;7658;51.456;7.622;2023-08-17T11:28:43;18.90;99.90
15115;DHT22;7658;51.456;7.622;2023-08-17T11:31:11;18.90;99.90
15115;DHT22;7658;51.456;7.622;2023-08-17T11:33:38;18.90;99.90
15115;DHT22;7658;51.456;7.622;2023-08-17T11:36:06;18.90;99.90
15115;DHT22;7658;51.456;7.622;2023-08-17T11:38:37;18.90;99.90
15115;DHT22;7658;51.456;7.622;2023-08-17T11:41:06;18.90;99.90
15115;DHT22;7658;51.456;7.622;2023-08-17T11:43:36;18.90;99.90
15115;DHT22;7658;51.456;7.622;2023-08-17T11:46:02;18.80;99.90
15115;DHT22;7658;51.456;7.622;2023-08-17T11:48:29;18.80;99.90
15115;DHT22;7658;51.456;7.622;2023-08-17T11:50:55;18.80;99.90
15115;DHT22;7658;51.456;7.622;2023-08-17T11:53:21;19.00;99.90
15115;DHT22;7658;51.456;7.622;2023-08-17T11:55:47;19.00;99.90
15115;DHT22;7658;51.456;7.622;2023-08-17T11:58:14;19.10;99.90
15115;DHT22;7658;51.456;7.622;2023-08-17T12:00:41;19.20;99.90
15115;DHT22;7658;51.456;7.622;2023-08-17T12:03:13;19.30;99.90
15115;DHT22;7658;51.456;7.622;2023-08-17T12:05:39;19.30;99.90
15115;DHT22;7658;51.456;7.622;2023-08-17T12:08:07;19.30;99.90
15115;DHT22;7658;51.456;7.622;2023-08-17T12:10:33;19.40;99.90
15115;DHT22;7658;51.456;7.622;2023-08-17T12:13:01;19.40;99.90
15115;DHT22;7658;51.456;7.622;2023-08-17T12:15:34;19.50;99.90
15115;DHT22;7658;51.456;7.622;2023-08-17T12:18:02;19.50;99.90
15115;DHT22;7658;51.456;7.622;2023-08-17T12:20:29;19.60;99.90
15115;DHT22;7658;51.456;7.622;2023-08-17T12:22:57;19.60;99.90
15115;DHT22;7658;51.456;7.622;2023-08-17T12:25:25;19.60;99.90
15115;DHT22;7658;51.456;7.622;2023-08-17T12:27:51;19.60;99.90
15115;DHT22;7658;51.456;7.622;2023-08-17T12:30:30;19.70;99.90
15115;DHT22;7658;51.456;7.622;2023-08-17T12:33:01;19.70;99.90
15115;DHT22;7658;51.456;7.622;2023-08-17T12:35:27;19.70;99.90
15115;DHT22;7658;51.456;7.622;2023-08-17T12:37:56;19.70;99.90
15115;DHT22;7658;51.456;7.622;2023-08-17T12:40:24;19.80;99.90
15115;DHT22;7658;51.456;7.622;2023-08-17T12:42:50;19.80;99.90
15115;DHT22;7658;51.456;7.622;2023-08-17T12:45:16;19.80;99.90
15115;DHT22;7658;51.456;7.622;2023-08-17T12:47:43;19.80;99.90
15115;DHT22;7658;51.456;7.622;2023-08-17T12:50:09;19.80;99.90
15115;DHT22;7658;51.456;7.622;2023-08-17T12:52:35;19.80;99.90
15115;DHT22;7658;51.456;7.622;2023-08-17T12:55:01;19.70;99.90
15115;DHT22;7658;51.456;7.622;2023-08-17T12:57:26;19.70;99.90
15115;DHT22;7658;51.456;7.622;2023-08-17T12:59:52;19.70;99.90
15115;DHT22;7658;51.456;7.622;2023-08-17T13:02:20;19.70;99.90
15115;DHT22;7658;51.456;7.622;2023-08-17T13:04:46;19.70;99.90
15115;DHT22;7658;51.456;7.622;2023-08-17T13:07:12;19.70;99.90
15115;DHT22;7658;51.456;7.622;2023-08-17T13:09:38;19.70;99.90
15115;DHT22;7658;51.456;7.622;2023-08-17T13:12:04;19.80;99.90
15115;DHT22;7658;51.456;7.622;2023-08-17T13:14:30;19.70;99.90
15115;DHT22;7658;51.456;7.622;2023-08-17T13:16:57;19.80;99.90
15115;DHT22;7658;51.456;7.622;2023-08-17T13:19:23;19.80;99.90
15115;DHT22;7658;51.456;7.622;2023-08-17T13:21:49;19.80;99.90
15115;DHT22;7658;51.456;7.622;2023-08-17T13:24:15;19.90;99.90
15115;DHT22;7658;51.456;7.622;2023-08-17T13:26:41;19.70;99.90
15115;DHT22;7658;51.456;7.622;2023-08-17T13:29:06;19.80;99.90
15115;DHT22;7658;51.456;7.622;2023-08-17T13:31:32;19.80;99.90
15115;DHT22;7658;51.456;7.622;2023-08-17T13:33:58;19.90;99.90
15115;DHT22;7658;51.456;7.622;2023-08-17T13:36:24;19.80;99.90
15115;DHT22;7658;51.456;7.622;2023-08-17T13:38:50;19.80;99.90
15115;DHT22;7658;51.456;7.622;2023-08-17T13:41:16;19.80;99.90
15115;DHT22;7658;51.456;7.622;2023-08-17T13:43:42;19.80;99.90
15115;DHT22;7658;51.456;7.622;2023-08-17T13:46:08;19.80;99.90
15115;DHT22;7658;51.456;7.622;2023-08-17T13:48:34;19.70;99.90
15115;DHT22;7658;51.456;7.622;2023-08-17T13:51:00;19.60;99.90
15115;DHT22;7658;51.456;7.622;2023-08-17T13:53:26;19.60;99.90
15115;DHT22;7658;51.456;7.622;2023-08-17T13:55:52;19.70;99.90
15115;DHT22;7658;51.456;7.622;2023-08-17T13:58:18;19.70;99.90
15115;DHT22;7658;51.456;7.622;2023-08-17T14:00:44;19.70;99.90
15115;DHT22;7658;51.456;7.622;2023-08-17T14:03:10;19.70;99.90
15115;DHT22;7658;51.456;7.622;2023-08-17T14:05:36;19.80;99.90
15115;DHT22;7658;51.456;7.622;2023-08-17T14:08:03;19.70;99.90
15115;DHT22;7658;51.456;7.622;2023-08-17T14:10:30;19.70;99.90
15115;DHT22;7658;51.456;7.622;2023-08-17T14:12:55;19.70;99.90
15115;DHT22;7658;51.456;7.622;2023-08-17T14:15:21;19.70;99.90
15115;DHT22;7658;51.456;7.622;2023-08-17T14:17:48;19.70;99.90
15115;DHT22;7658;51.456;7.622;2023-08-17T14:20:14;19.80;99.90
15115;DHT22;7658;51.456;7.622;2023-08-17T14:22:40;19.80;99.90
15115;DHT22;7658;51.456;7.622;2023-08-17T14:25:06;19.80;99.90
15115;DHT22;7658;51.456;7.622;2023-08-17T14:27:32;19.70;99.90
15115;DHT22;7658;51.456;7.622;2023-08-17T14:30:00;19.80;99.90
15115;DHT22;7658;51.456;7.622;2023-08-17T14:32:28;19.80;99.90
15115;DHT22;7658;51.456;7.622;2023-08-17T14:34:54;19.80;99.90
15115;DHT22;7658;51.456;7.622;2023-08-17T14:37:20;19.80;99.90
15115;DHT22;7658;51.456;7.622;2023-08-17T14:39:46;19.80;99.90
15115;DHT22;7658;51.456;7.622;2023-08-17T14:42:12;19.90;99.90
15115;DHT22;7658;51.456;7.622;2023-08-17T14:44:38;19.90;99.90
15115;DHT22;7658;51.456;7.622;2023-08-17T14:47:04;19.90;99.90
15115;DHT22;7658;51.456;7.622;2023-08-17T14:49:30;19.90;99.90
15115;DHT22;7658;51.456;7.622;2023-08-17T14:51:56;19.90;99.90
15115;DHT22;7658;51.456;7.622;2023-08-17T14:54:22;19.90;99.90
15115;DHT22;7658;51.456;7.622;2023-08-17T14:56:48;19.80;99.90
15115;DHT22;7658;51.456;7.622;2023-08-17T14:59:14;19.80;99.90
15115;DHT22;7658;51.456;7.622;2023-08-17T15:01:40;19.80;99.90
15115;DHT22;7658;51.456;7.622;2023-08-17T15:04:06;19.70;99.90
15115;DHT22;7658;51.456;7.622;2023-08-17T15:06:31;19.70;99.90
15115;DHT22;7658;51.456;7.622;2023-08-17T15:08:58;19.80;99.90
15115;DHT22;7658;51.456;7.622;2023-08-17T15:11:24;19.80;99.90
15115;DHT22;7658;51.456;7.622;2023-08-17T15:13:50;19.80;99.90
15115;DHT22;7658;51.456;7.622;2023-08-17T15:16:16;19.80;99.90
15115;DHT22;7658;51.456;7.622;2023-08-17T15:18:41;19.90;99.90
15115;DHT22;7658;51.456;7.622;2023-08-17T15:21:07;20.00;99.90
15115;DHT22;7658;51.456;7.622;2023-08-17T15:23:33;20.10;99.90
15115;DHT22;7658;51.456;7.622;2023-08-17T15:25:58;20.20;99.90
15115;DHT22;7658;51.456;7.622;2023-08-17T15:28:24;20.40;99.90
15115;DHT22;7658;51.456;7.622;2023-08-17T15:31:00;20.50;99.90
15115;DHT22;7658;51.456;7.622;2023-08-17T15:33:27;20.70;99.90
15115;DHT22;7658;51.456;7.622;2023-08-17T15:35:52;20.90;99.90
15115;DHT22;7658;51.456;7.622;2023-08-17T15:38:18;20.90;99.90
15115;DHT22;7658;51.456;7.622;2023-08-17T15:40:44;21.00;99.90
15115;DHT22;7658;51.456;7.622;2023-08-17T15:43:09;20.90;99.90
15115;DHT22;7658;51.456;7.622;2023-08-17T15:45:35;21.00;99.90
15115;DHT22;7658;51.456;7.622;2023-08-17T15:48:01;21.20;99.90
15115;DHT22;7658;51.456;7.622;2023-08-17T15:50:28;21.50;99.90
15115;DHT22;7658;51.456;7.622;2023-08-17T15:52:54;21.70;99.90
15115;DHT22;7658;51.456;7.622;2023-08-17T15:55:20;22.00;99.90
15115;DHT22;7658;51.456;7.622;2023-08-17T15:57:46;22.30;99.90
15115;DHT22;7658;51.456;7.622;2023-08-17T16:00:12;22.70;99.90
15115;DHT22;7658;51.456;7.622;2023-08-17T16:02:38;22.90;99.90
15115;DHT22;7658;51.456;7.622;2023-08-17T16:05:04;22.60;99.90
15115;DHT22;7658;51.456;7.622;2023-08-17T16:07:29;22.50;99.90
15115;DHT22;7658;51.456;7.622;2023-08-17T16:09:55;22.60;99.90
15115;DHT22;7658;51.456;7.622;2023-08-17T16:12:21;22.50;99.90
15115;DHT22;7658;51.456;7.622;2023-08-17T16:14:47;22.20;99.90
15115;DHT22;7658;51.456;7.622;2023-08-17T16:17:12;22.10;99.90
15115;DHT22;7658;51.456;7.622;2023-08-17T16:19:38;22.00;99.90
15115;DHT22;7658;51.456;7.622;2023-08-17T16:22:04;21.80;99.90
15115;DHT22;7658;51.456;7.622;2023-08-17T16:24:30;21.50;99.90
15115;DHT22;7658;51.456;7.622;2023-08-17T16:26:56;21.40;99.90
15115;DHT22;7658;51.456;7.622;2023-08-17T16:29:21;21.30;99.90
15115;DHT22;7658;51.456;7.622;2023-08-17T16:31:59;21.20;99.90
15115;DHT22;7658;51.456;7.622;2023-08-17T16:34:26;21.00;99.90
15115;DHT22;7658;51.456;7.622;2023-08-17T16:36:52;20.80;99.90
15115;DHT22;7658;51.456;7.622;2023-08-17T16:39:17;20.80;99.90